createdAt,value
2019-03-21T00:01:23.620Z,23.63
2019-03-21T00:03:56.405Z,23.93
2019-03-21T00:06:26.768Z,22.80
2019-03-21T00:08:57.099Z,22.80
2019-03-21T00:11:54.090Z,24.20
2019-03-21T00:14:56.866Z,24.47
2019-03-21T00:17:30.053Z,24.57
2019-03-21T00:20:00.399Z,25.00
2019-03-21T00:22:30.661Z,24.93
2019-03-21T00:25:00.898Z,23.73
2019-03-21T00:27:31.161Z,22.93
2019-03-21T00:30:01.448Z,21.73
2019-03-21T00:32:31.622Z,19.57
2019-03-21T00:35:01.846Z,20.70
2019-03-21T00:37:32.078Z,18.90
2019-03-21T00:40:02.298Z,18.67
2019-03-21T00:42:32.611Z,17.43
2019-03-21T00:45:02.834Z,18.33
2019-03-21T00:47:33.052Z,18.03
2019-03-21T00:50:03.293Z,18.03
2019-03-21T00:52:33.473Z,16.50
2019-03-21T00:55:03.674Z,17.30
2019-03-21T00:57:33.855Z,16.40
2019-03-21T01:00:04.713Z,17.30
2019-03-21T01:02:34.991Z,16.20
2019-03-21T01:05:05.784Z,17.07
2019-03-21T01:07:35.947Z,16.57
2019-03-21T01:10:07.854Z,15.77
2019-03-21T01:12:38.001Z,15.37
2019-03-21T01:15:08.380Z,15.57
2019-03-21T01:17:38.581Z,15.80
2019-03-21T01:20:10.580Z,15.03
2019-03-21T01:22:40.796Z,16.67
2019-03-21T01:25:13.908Z,15.77
2019-03-21T01:27:44.221Z,15.67
2019-03-21T01:30:15.508Z,15.93
2019-03-21T01:32:45.861Z,15.73
2019-03-21T01:35:16.072Z,15.97
2019-03-21T01:37:46.329Z,15.40
2019-03-21T01:40:19.166Z,15.73
2019-03-21T01:42:49.484Z,14.63
2019-03-21T01:45:21.368Z,13.17
2019-03-21T01:47:52.442Z,11.87
2019-03-21T01:50:23.193Z,11.10
2019-03-21T01:52:53.459Z,12.13
2019-03-21T01:55:23.795Z,12.50
2019-03-21T01:57:54.047Z,13.17
2019-03-21T02:00:29.604Z,12.37
2019-03-21T02:02:59.886Z,11.57
2019-03-21T02:05:30.211Z,11.23
2019-03-21T02:08:00.433Z,12.13
2019-03-21T02:10:30.721Z,12.20
2019-03-21T02:13:01.047Z,12.47
2019-03-21T02:15:31.318Z,12.57
2019-03-21T02:18:01.497Z,12.97
2019-03-21T02:20:31.821Z,13.50
2019-03-21T02:23:02.114Z,13.07
2019-03-21T02:25:32.490Z,12.27
2019-03-21T02:28:02.654Z,13.10
2019-03-21T02:30:34.825Z,12.33
2019-03-21T02:33:17.417Z,12.03
2019-03-21T02:35:47.687Z,12.07
2019-03-21T02:38:17.991Z,11.03
2019-03-21T02:40:48.442Z,11.77
2019-03-21T02:43:18.798Z,12.13
2019-03-21T02:45:49.356Z,12.00
2019-03-21T02:48:19.831Z,13.00
2019-03-21T02:50:50.031Z,12.93
2019-03-21T02:53:20.372Z,12.73
2019-03-21T02:55:50.615Z,13.03
2019-03-21T02:58:20.846Z,13.43
2019-03-21T03:00:51.037Z,13.90
2019-03-21T03:03:21.153Z,13.93
2019-03-21T03:05:51.420Z,13.60
2019-03-21T03:08:21.630Z,13.37
2019-03-21T03:10:53.286Z,13.70
2019-03-21T03:13:23.591Z,12.23
2019-03-21T03:15:53.884Z,12.13
2019-03-21T03:18:25.023Z,11.80
2019-03-21T03:20:55.328Z,12.63
2019-03-21T03:23:25.556Z,14.93
2019-03-21T03:25:55.755Z,15.23
2019-03-21T03:28:26.734Z,13.27
2019-03-21T03:30:57.440Z,13.57
2019-03-21T03:33:27.812Z,13.67
2019-03-21T03:35:58.076Z,13.20
2019-03-21T03:38:28.480Z,12.47
2019-03-21T03:41:00.029Z,12.30
2019-03-21T03:43:30.378Z,12.37
2019-03-21T03:46:00.595Z,12.63
2019-03-21T03:48:30.856Z,13.10
2019-03-21T03:51:01.082Z,12.30
2019-03-21T03:53:31.349Z,12.13
2019-03-21T03:56:01.678Z,10.60
2019-03-21T03:58:32.226Z,10.60
2019-03-21T04:01:02.498Z,10.50
2019-03-21T04:03:32.825Z,11.13
2019-03-21T04:06:03.145Z,12.70
2019-03-21T04:08:33.508Z,13.13
2019-03-21T04:11:04.203Z,12.23
2019-03-21T04:13:34.637Z,12.07
2019-03-21T04:16:04.987Z,10.77
2019-03-21T04:18:35.338Z,12.60
2019-03-21T04:21:06.049Z,11.33
2019-03-21T04:23:36.317Z,11.53
2019-03-21T04:26:19.392Z,12.07
2019-03-21T04:28:49.870Z,11.37
2019-03-21T04:31:20.211Z,11.03
2019-03-21T04:33:51.010Z,11.60
2019-03-21T04:36:22.498Z,11.03
2019-03-21T04:38:52.675Z,11.80
2019-03-21T04:41:25.223Z,11.87
2019-03-21T04:43:58.309Z,12.07
2019-03-21T04:46:28.556Z,12.53
2019-03-21T04:49:02.237Z,12.40
2019-03-21T04:51:34.487Z,12.77
2019-03-21T04:54:04.512Z,14.17
2019-03-21T04:56:36.247Z,14.03
2019-03-21T04:59:06.564Z,15.37
2019-03-21T05:01:36.836Z,15.33
2019-03-21T05:04:07.073Z,14.73
2019-03-21T05:06:37.352Z,15.53
2019-03-21T05:09:10.639Z,15.83
2019-03-21T05:11:40.963Z,16.70
2019-03-21T05:14:11.236Z,13.83
2019-03-21T05:16:42.153Z,15.57
2019-03-21T05:19:13.926Z,14.80
2019-03-21T05:21:49.129Z,14.33
2019-03-21T05:24:19.535Z,16.30
2019-03-21T05:26:52.643Z,15.13
2019-03-21T05:29:22.864Z,14.70
2019-03-21T05:31:53.097Z,14.63
2019-03-21T05:34:23.445Z,14.70
2019-03-21T05:36:53.584Z,13.67
2019-03-21T05:39:23.832Z,13.70
2019-03-21T05:41:53.995Z,14.00
2019-03-21T05:44:34.180Z,13.50
2019-03-21T05:47:04.387Z,13.70
2019-03-21T05:49:34.928Z,13.60
2019-03-21T05:52:06.672Z,13.47
2019-03-21T05:54:36.825Z,14.37
2019-03-21T05:57:07.070Z,14.93
2019-03-21T05:59:37.257Z,14.50
2019-03-21T06:02:07.490Z,14.37
2019-03-21T06:04:37.680Z,13.83
2019-03-21T06:07:42.019Z,14.03
2019-03-21T06:10:13.749Z,13.50
2019-03-21T06:12:47.727Z,13.80
2019-03-21T06:15:24.232Z,14.53
2019-03-21T06:18:18.954Z,13.03
2019-03-21T06:20:57.425Z,14.07
2019-03-21T06:23:55.043Z,14.67
2019-03-21T06:26:32.817Z,14.77
2019-03-21T06:29:03.161Z,14.63
2019-03-21T06:31:33.464Z,14.73
2019-03-21T06:34:06.390Z,14.73
2019-03-21T06:36:36.728Z,15.40
2019-03-21T06:39:11.727Z,16.63
2019-03-21T06:41:42.040Z,15.83
2019-03-21T06:44:14.668Z,21.97
2019-03-21T06:46:49.577Z,28.23
2019-03-21T06:49:17.013Z,21.83
2019-03-21T06:51:47.253Z,19.10
2019-03-21T06:54:17.617Z,15.77
2019-03-21T06:56:47.921Z,15.07
2019-03-21T06:59:18.189Z,16.07
2019-03-21T07:01:48.339Z,15.93
2019-03-21T07:04:18.643Z,16.07
2019-03-21T07:06:48.893Z,15.13
2019-03-21T07:09:19.157Z,16.03
2019-03-21T07:11:49.512Z,14.23
2019-03-21T07:14:19.760Z,15.50
2019-03-21T07:17:00.104Z,19.10
2019-03-21T07:19:23.477Z,15.33
2019-03-21T07:21:53.790Z,15.50
2019-03-21T07:24:24.055Z,16.10
2019-03-21T07:26:54.545Z,16.40
2019-03-21T07:29:24.886Z,16.33
2019-03-21T07:31:55.133Z,14.67
2019-03-21T07:34:25.392Z,15.10
2019-03-21T07:36:55.779Z,15.97
2019-03-21T07:39:28.576Z,16.13
2019-03-21T07:41:58.009Z,14.70
2019-03-21T07:44:28.336Z,14.83
2019-03-21T07:46:58.767Z,15.43
2019-03-21T07:49:29.016Z,15.43
2019-03-21T07:51:59.311Z,15.87
2019-03-21T07:54:29.575Z,15.70
2019-03-21T07:56:59.820Z,15.83
2019-03-21T07:59:30.294Z,14.40
2019-03-21T08:02:00.509Z,16.37
2019-03-21T08:04:30.869Z,16.67
2019-03-21T08:07:01.121Z,17.33
2019-03-21T08:09:31.460Z,16.47
2019-03-21T08:12:01.773Z,24.50
2019-03-21T08:14:32.085Z,15.67
2019-03-21T08:17:02.332Z,15.50
2019-03-21T08:19:32.634Z,16.43
2019-03-21T08:22:02.966Z,15.93
2019-03-21T08:24:33.304Z,15.83
2019-03-21T08:27:03.565Z,17.33
2019-03-21T08:29:33.880Z,17.20
2019-03-21T08:32:04.203Z,15.93
2019-03-21T08:34:34.763Z,16.77
2019-03-21T08:37:05.058Z,16.13
2019-03-21T08:39:35.353Z,17.90
2019-03-21T08:42:05.707Z,17.07
2019-03-21T08:44:36.075Z,17.20
2019-03-21T08:47:06.281Z,16.73
2019-03-21T08:49:36.606Z,17.30
2019-03-21T08:52:06.876Z,17.67
2019-03-21T08:54:37.098Z,17.10
2019-03-21T08:57:07.438Z,17.63
2019-03-21T08:59:38.163Z,16.83
2019-03-21T09:02:08.411Z,17.43
2019-03-21T09:04:38.745Z,17.80
2019-03-21T09:07:09.058Z,19.07
2019-03-21T09:09:39.405Z,17.77
2019-03-21T09:12:09.747Z,18.30
2019-03-21T09:14:39.967Z,20.00
2019-03-21T09:17:10.229Z,16.97
2019-03-21T09:19:40.546Z,16.93
2019-03-21T09:22:10.785Z,17.53
2019-03-21T09:24:41.060Z,18.73
2019-03-21T09:27:11.397Z,17.90
2019-03-21T09:29:52.845Z,16.53
2019-03-21T09:32:13.651Z,18.83
2019-03-21T09:34:43.926Z,19.77
2019-03-21T09:37:16.223Z,17.93
2019-03-21T09:39:46.449Z,18.97
2019-03-21T09:42:16.771Z,18.33
2019-03-21T09:44:47.010Z,19.40
2019-03-21T09:47:17.314Z,18.50
2019-03-21T09:49:47.598Z,19.60
2019-03-21T09:52:17.841Z,19.47
2019-03-21T09:54:48.031Z,19.90
2019-03-21T09:57:18.442Z,19.10
2019-03-21T09:59:48.832Z,19.57
2019-03-21T10:02:19.265Z,19.67
2019-03-21T10:04:49.727Z,20.20
2019-03-21T10:07:20.034Z,21.10
2019-03-21T10:09:50.366Z,19.33
2019-03-21T10:12:20.773Z,18.53
2019-03-21T10:14:51.096Z,19.37
2019-03-21T10:17:21.378Z,20.53
2019-03-21T10:19:51.739Z,19.03
2019-03-21T10:22:22.050Z,21.07
2019-03-21T10:24:52.337Z,20.20
2019-03-21T10:27:22.682Z,20.40
2019-03-21T10:29:53.039Z,18.87
2019-03-21T10:32:23.262Z,19.73
2019-03-21T10:34:53.603Z,21.47
2019-03-21T10:37:23.874Z,19.70
2019-03-21T10:39:54.115Z,21.00
2019-03-21T10:42:24.379Z,20.27
2019-03-21T10:44:54.591Z,21.53
2019-03-21T10:47:24.838Z,19.70
2019-03-21T10:49:55.263Z,21.23
2019-03-21T10:52:25.551Z,19.93
2019-03-21T10:54:55.716Z,21.13
2019-03-21T10:57:26.002Z,20.93
2019-03-21T10:59:56.327Z,19.97
2019-03-21T11:02:26.646Z,20.93
2019-03-21T11:04:56.895Z,19.87
2019-03-21T11:07:24.836Z,18.27
2019-03-21T11:09:55.085Z,19.60
2019-03-21T11:12:25.456Z,19.30
2019-03-21T11:14:55.707Z,19.13
2019-03-21T11:17:26.026Z,20.70
2019-03-21T11:19:57.007Z,19.10
2019-03-21T11:22:27.229Z,21.57
2019-03-21T11:24:57.520Z,21.60
2019-03-21T11:27:27.799Z,20.40
2019-03-21T11:29:58.245Z,20.57
2019-03-21T11:32:28.472Z,19.93
2019-03-21T11:34:58.937Z,19.07
2019-03-21T11:37:29.212Z,20.30
2019-03-21T11:40:01.199Z,20.13
2019-03-21T11:42:31.529Z,20.47
2019-03-21T11:45:02.172Z,20.37
2019-03-21T11:47:41.306Z,20.53
2019-03-21T11:50:04.642Z,20.83
2019-03-21T11:52:35.389Z,20.50
2019-03-21T11:55:06.225Z,20.70
2019-03-21T11:57:36.658Z,20.13
2019-03-21T12:00:07.563Z,20.87
2019-03-21T12:02:37.880Z,20.20
2019-03-21T12:05:22.344Z,18.17
2019-03-21T12:08:10.418Z,19.63
2019-03-21T12:10:51.182Z,18.47
2019-03-21T12:13:42.024Z,18.10
2019-03-21T12:16:23.250Z,18.33
2019-03-21T12:19:06.428Z,18.97
2019-03-21T12:22:33.502Z,18.37
2019-03-21T12:25:03.743Z,17.00
2019-03-21T12:27:35.665Z,16.27
2019-03-21T12:30:07.276Z,15.17
2019-03-21T12:32:46.231Z,18.03
2019-03-21T12:35:16.606Z,17.17
2019-03-21T12:37:46.962Z,15.40
2019-03-21T12:40:17.149Z,14.97
2019-03-21T12:42:47.515Z,16.07
2019-03-21T12:45:17.808Z,14.47
2019-03-21T12:47:48.142Z,14.53
2019-03-21T12:50:18.421Z,14.53
2019-03-21T12:52:48.751Z,13.30
2019-03-21T12:55:19.147Z,14.17
2019-03-21T12:57:49.467Z,13.57
2019-03-21T13:00:40.271Z,13.40
2019-03-21T13:03:10.722Z,13.93
2019-03-21T13:05:41.193Z,14.13
2019-03-21T13:08:13.761Z,11.80
2019-03-21T13:10:43.662Z,12.27
2019-03-21T13:13:14.938Z,13.93
2019-03-21T13:15:45.171Z,11.97
2019-03-21T13:18:15.429Z,11.17
2019-03-21T13:20:45.664Z,11.60
2019-03-21T13:23:15.873Z,13.23
2019-03-21T13:25:46.071Z,11.90
2019-03-21T13:28:16.322Z,11.20
2019-03-21T13:30:46.516Z,10.87
2019-03-21T13:33:16.800Z,10.43
2019-03-21T13:35:47.122Z,11.63
2019-03-21T13:38:17.378Z,11.97
2019-03-21T13:40:48.564Z,13.10
2019-03-21T13:43:18.801Z,11.97
2019-03-21T13:45:49.138Z,13.83
2019-03-21T13:48:19.445Z,12.40
2019-03-21T13:50:49.808Z,11.77
2019-03-21T13:53:20.050Z,10.07
2019-03-21T13:55:50.441Z,10.70
2019-03-21T13:58:20.724Z,11.60
2019-03-21T14:00:51.071Z,11.33
2019-03-21T14:03:25.236Z,11.03
2019-03-21T14:05:55.342Z,10.83
2019-03-21T14:08:25.381Z,11.07
2019-03-21T14:10:55.601Z,13.00
2019-03-21T14:13:25.862Z,11.83
2019-03-21T14:15:57.987Z,12.20
2019-03-21T14:18:28.237Z,12.97
2019-03-21T14:20:58.407Z,12.80
2019-03-21T14:23:28.717Z,12.47
2019-03-21T14:25:59.049Z,13.00
2019-03-21T14:28:29.374Z,13.53
2019-03-21T14:30:59.632Z,14.60
2019-03-21T14:33:31.028Z,16.03
2019-03-21T14:36:01.376Z,15.00
2019-03-21T14:38:31.710Z,15.33
2019-03-21T14:41:01.949Z,14.43
2019-03-21T14:43:32.212Z,15.27
2019-03-21T14:46:02.469Z,15.00
2019-03-21T14:48:32.730Z,14.97
2019-03-21T14:51:03.032Z,14.97
2019-03-21T14:53:33.450Z,14.33
2019-03-21T14:56:03.611Z,14.67
2019-03-21T14:58:36.375Z,14.27
2019-03-21T15:01:06.706Z,13.70
2019-03-21T15:03:36.936Z,12.00
2019-03-21T15:06:07.078Z,11.77
2019-03-21T15:08:37.370Z,10.83
2019-03-21T15:11:16.607Z,11.93
2019-03-21T15:13:39.587Z,12.17
2019-03-21T15:16:09.885Z,12.20
2019-03-21T15:18:42.637Z,12.17
2019-03-21T15:21:15.265Z,12.40
2019-03-21T15:23:45.654Z,12.30
2019-03-21T15:26:18.775Z,12.40
2019-03-21T15:28:49.171Z,13.60
2019-03-21T15:31:22.065Z,13.07
2019-03-21T15:33:54.707Z,13.07
2019-03-21T15:36:24.925Z,12.50
2019-03-21T15:38:55.379Z,12.83
2019-03-21T15:41:28.240Z,14.73
2019-03-21T15:43:58.446Z,15.00
2019-03-21T15:46:28.832Z,16.43
2019-03-21T15:48:59.019Z,15.30
2019-03-21T15:51:29.315Z,15.43
2019-03-21T15:53:59.624Z,15.53
2019-03-21T15:56:32.357Z,15.90
2019-03-21T15:59:04.175Z,15.50
2019-03-21T16:01:38.602Z,15.37
2019-03-21T16:04:09.080Z,17.43
2019-03-21T16:06:39.489Z,16.67
2019-03-21T16:09:10.856Z,16.47
2019-03-21T16:11:41.051Z,16.40
2019-03-21T16:14:11.268Z,15.33
2019-03-21T16:16:41.578Z,15.57
2019-03-21T16:19:11.847Z,14.97
2019-03-21T16:21:42.131Z,16.10
2019-03-21T16:24:12.422Z,16.10
2019-03-21T16:26:45.500Z,15.20
2019-03-21T16:29:15.941Z,15.33
2019-03-21T16:31:47.365Z,14.53
2019-03-21T16:34:17.610Z,14.37
2019-03-21T16:36:51.399Z,14.43
2019-03-21T16:39:21.626Z,15.33
2019-03-21T16:41:53.313Z,15.43
2019-03-21T16:44:23.661Z,15.27
2019-03-21T16:46:54.039Z,16.77
2019-03-21T16:49:39.069Z,16.30
2019-03-21T16:52:10.842Z,16.53
2019-03-21T16:54:42.194Z,15.37
2019-03-21T16:57:12.382Z,15.83
2019-03-21T16:59:42.679Z,16.50
2019-03-21T17:02:12.943Z,16.77
2019-03-21T17:04:43.149Z,17.27
2019-03-21T17:07:13.416Z,15.80
2019-03-21T17:09:43.727Z,16.33
2019-03-21T17:12:14.060Z,16.80
2019-03-21T17:14:44.337Z,15.73
2019-03-21T17:17:14.527Z,16.60
2019-03-21T17:19:45.026Z,16.30
2019-03-21T17:22:15.318Z,16.53
2019-03-21T17:24:45.617Z,16.70
2019-03-21T17:27:15.956Z,17.03
2019-03-21T17:29:55.708Z,17.13
2019-03-21T17:32:24.032Z,17.47
2019-03-21T17:34:54.229Z,16.37
2019-03-21T17:37:24.442Z,17.97
2019-03-21T17:39:54.703Z,17.43
2019-03-21T17:42:24.911Z,17.60
2019-03-21T17:44:55.242Z,18.70
2019-03-21T17:47:27.775Z,19.10
2019-03-21T17:49:58.146Z,18.33
2019-03-21T17:52:28.294Z,19.07
2019-03-21T17:55:00.120Z,19.33
2019-03-21T17:57:34.661Z,23.03
2019-03-21T18:00:02.466Z,28.40
2019-03-21T18:02:33.178Z,31.60
2019-03-21T18:05:03.644Z,35.43
2019-03-21T18:07:34.054Z,40.33
2019-03-21T18:10:04.396Z,44.33
2019-03-21T18:12:34.560Z,31.37
2019-03-21T18:15:05.664Z,30.20
2019-03-21T18:17:36.078Z,34.73
2019-03-21T18:20:06.907Z,30.13
2019-03-21T18:22:55.302Z,35.57
2019-03-21T18:25:25.635Z,34.60
2019-03-21T18:27:56.113Z,37.00
2019-03-21T18:30:30.283Z,40.63
2019-03-21T18:33:00.564Z,40.07
2019-03-21T18:35:43.171Z,45.03
2019-03-21T18:38:13.726Z,47.67
2019-03-21T18:40:45.638Z,45.00
2019-03-21T18:43:16.328Z,49.87
2019-03-21T18:45:50.140Z,50.63
2019-03-21T18:48:23.254Z,45.87
2019-03-21T18:50:56.261Z,42.47
2019-03-21T18:53:27.927Z,44.93
2019-03-21T18:55:59.438Z,45.33
2019-03-21T18:58:30.007Z,45.27
2019-03-21T19:01:02.222Z,47.27
2019-03-21T19:03:32.769Z,47.47
2019-03-21T19:06:03.857Z,43.87
2019-03-21T19:08:34.452Z,50.33
2019-03-21T19:11:04.918Z,51.20
2019-03-21T19:13:37.227Z,54.10
2019-03-21T19:16:07.798Z,50.63
2019-03-21T19:19:07.405Z,55.77
2019-03-21T19:21:37.947Z,53.90
2019-03-21T19:24:08.359Z,64.83
2019-03-21T19:26:42.373Z,61.60
2019-03-21T19:29:16.011Z,59.53
2019-03-21T19:31:47.741Z,58.50
2019-03-21T19:34:17.829Z,50.93
2019-03-21T19:36:47.984Z,50.63
2019-03-21T19:39:18.273Z,36.00
2019-03-21T19:41:49.062Z,34.73
2019-03-21T19:44:19.362Z,40.00
2019-03-21T19:46:49.611Z,48.83
2019-03-21T19:49:19.948Z,55.27
2019-03-21T19:51:50.284Z,61.50
2019-03-21T19:54:20.671Z,62.87
2019-03-21T19:56:50.931Z,62.80
2019-03-21T19:59:21.266Z,66.10
2019-03-21T20:01:51.655Z,69.20
2019-03-21T20:04:22.008Z,66.63
2019-03-21T20:06:52.264Z,65.47
2019-03-21T20:09:22.527Z,62.37
2019-03-21T20:11:52.829Z,57.93
2019-03-21T20:14:25.792Z,59.93
2019-03-21T20:16:56.031Z,77.77
2019-03-21T20:19:26.296Z,69.57
2019-03-21T20:21:56.687Z,65.37
2019-03-21T20:24:27.065Z,63.27
2019-03-21T20:27:09.883Z,61.63
2019-03-21T20:29:39.473Z,51.37
2019-03-21T20:32:20.150Z,60.90
2019-03-21T20:34:41.646Z,59.53
2019-03-21T20:37:12.009Z,61.93
2019-03-21T20:39:42.708Z,63.37
2019-03-21T20:42:33.435Z,56.73
2019-03-21T20:45:07.826Z,59.67
2019-03-21T20:47:38.158Z,58.90
2019-03-21T20:50:08.773Z,58.93
2019-03-21T20:52:42.048Z,60.37
2019-03-21T20:55:15.034Z,78.00
2019-03-21T20:57:45.212Z,57.27
2019-03-21T21:00:18.120Z,55.93
2019-03-21T21:02:48.461Z,55.83
2019-03-21T21:05:18.796Z,50.77
2019-03-21T21:07:49.056Z,52.90
2019-03-21T21:10:19.212Z,56.67
2019-03-21T21:12:49.423Z,50.40
2019-03-21T21:15:20.686Z,46.80
2019-03-21T21:17:50.872Z,50.83
2019-03-21T21:20:21.078Z,57.90
2019-03-21T21:22:51.251Z,52.47
2019-03-21T21:25:21.551Z,49.70
2019-03-21T21:27:51.833Z,49.70
2019-03-21T21:30:22.655Z,51.73
2019-03-21T21:32:52.922Z,57.53
2019-03-21T21:35:23.144Z,53.53
2019-03-21T21:37:53.382Z,63.07
2019-03-21T21:40:23.510Z,54.37
2019-03-21T21:42:53.645Z,53.57
2019-03-21T21:45:23.908Z,54.73
2019-03-21T21:47:54.189Z,59.83
2019-03-21T21:50:27.732Z,55.17
2019-03-21T21:53:07.284Z,55.97
2019-03-21T21:55:39.634Z,61.80
2019-03-21T21:58:09.919Z,59.67
2019-03-21T22:00:40.296Z,63.30
2019-03-21T22:03:10.713Z,70.83
2019-03-21T22:05:40.912Z,62.97
2019-03-21T22:08:11.290Z,57.47
2019-03-21T22:10:41.568Z,56.47
2019-03-21T22:13:11.856Z,56.87
2019-03-21T22:15:42.056Z,55.33
2019-03-21T22:18:12.349Z,55.03
2019-03-21T22:20:42.693Z,68.63
2019-03-21T22:23:12.930Z,72.47
2019-03-21T22:25:43.202Z,76.90
2019-03-21T22:28:13.483Z,78.83
2019-03-21T22:30:43.718Z,82.07
2019-03-21T22:33:13.956Z,75.13
2019-03-21T22:35:44.205Z,60.00
2019-03-21T22:38:14.410Z,67.77
2019-03-21T22:40:44.901Z,59.27
2019-03-21T22:43:15.248Z,51.03
2019-03-21T22:45:45.439Z,59.40
2019-03-21T22:48:15.701Z,70.53
2019-03-21T22:50:45.968Z,82.50
2019-03-21T22:53:16.223Z,86.57
2019-03-21T22:55:46.576Z,87.83
2019-03-21T22:58:16.715Z,88.20
2019-03-21T23:00:47.464Z,88.87
2019-03-21T23:03:17.739Z,97.87
2019-03-21T23:05:48.166Z,98.63
2019-03-21T23:08:18.372Z,92.80
2019-03-21T23:10:48.589Z,83.37
2019-03-21T23:13:19.733Z,90.03
2019-03-21T23:15:50.005Z,82.07
2019-03-21T23:18:20.245Z,78.77
2019-03-21T23:20:50.481Z,78.63
2019-03-21T23:23:20.720Z,81.93
2019-03-21T23:25:51.092Z,80.07
2019-03-21T23:28:21.721Z,74.77
2019-03-21T23:30:52.018Z,68.70
2019-03-21T23:33:22.291Z,60.10
2019-03-21T23:35:52.584Z,59.83
2019-03-21T23:38:22.725Z,59.77
2019-03-21T23:40:53.000Z,64.53
2019-03-21T23:43:23.201Z,64.77
2019-03-21T23:45:53.400Z,68.00
2019-03-21T23:48:23.623Z,73.17
2019-03-21T23:50:53.921Z,75.53
2019-03-21T23:53:24.190Z,75.57
2019-03-21T23:55:54.496Z,81.17
2019-03-21T23:58:24.754Z,79.13
